Ellsworth, Ohio
Current Conditions -  °F | °C
As of 2:51 PM on Saturday 20 Dec 2014 (Local Time) from KYNG Reporting Station
Overcast Overcast  
Wind Chill: 23°   Ceiling: 2300
Heat Index: 30°   Visibility: 10mi
Dew Point: 20°   Wind: 7mph
Humidity: 66%   Direction: 320°NW
Pressure: 30.22"   Gusts: NA
Location:  41.02°N, 80.86°W
Report Text: KYNG 201951Z 32006KT 10SM OVC023 M01/M07 A3022 RMK AO2 SLP249 T10111067
Loading
Personal Weather Stations






























Interactive Weather Map New forecast layout! Learn more

10-Day Weather Forecast

Advertisements
Track Severe Weather on mobile